sensor_id;sensor_type;location;lat;lon;timestamp;temperature;humidity
75927;DHT22;64605;48.296;16.416;2022-10-31T00:00:22;14.80;83.10
75927;DHT22;64605;48.296;16.416;2022-10-31T00:02:47;14.80;82.80
75927;DHT22;64605;48.296;16.416;2022-10-31T00:05:13;14.80;82.40
75927;DHT22;64605;48.296;16.416;2022-10-31T00:07:39;14.80;82.70
75927;DHT22;64605;48.296;16.416;2022-10-31T00:10:05;14.70;82.90
75927;DHT22;64605;48.296;16.416;2022-10-31T00:12:30;14.70;82.80
75927;DHT22;64605;48.296;16.416;2022-10-31T00:14:56;14.80;83.00
75927;DHT22;64605;48.296;16.416;2022-10-31T00:17:22;14.80;82.60
75927;DHT22;64605;48.296;16.416;2022-10-31T00:19:47;14.70;82.60
75927;DHT22;64605;48.296;16.416;2022-10-31T00:22:13;14.70;82.50
75927;DHT22;64605;48.296;16.416;2022-10-31T00:24:39;14.70;82.70
75927;DHT22;64605;48.296;16.416;2022-10-31T00:27:04;14.60;82.90
75927;DHT22;64605;48.296;16.416;2022-10-31T00:29:30;14.60;82.90
75927;DHT22;64605;48.296;16.416;2022-10-31T00:31:56;14.60;83.00
75927;DHT22;64605;48.296;16.416;2022-10-31T00:34:21;14.60;82.90
75927;DHT22;64605;48.296;16.416;2022-10-31T00:36:47;14.50;83.10
75927;DHT22;64605;48.296;16.416;2022-10-31T00:39:12;14.40;83.20
75927;DHT22;64605;48.296;16.416;2022-10-31T00:41:38;14.40;83.80
75927;DHT22;64605;48.296;16.416;2022-10-31T00:44:04;14.40;84.00
75927;DHT22;64605;48.296;16.416;2022-10-31T00:46:29;14.50;83.70
75927;DHT22;64605;48.296;16.416;2022-10-31T00:48:55;14.50;83.30
75927;DHT22;64605;48.296;16.416;2022-10-31T00:51:21;14.70;83.40
75927;DHT22;64605;48.296;16.416;2022-10-31T00:53:46;14.70;83.10
75927;DHT22;64605;48.296;16.416;2022-10-31T00:56:12;14.80;82.80
75927;DHT22;64605;48.296;16.416;2022-10-31T00:58:37;14.90;82.60
75927;DHT22;64605;48.296;16.416;2022-10-31T01:01:03;15.00;82.20
75927;DHT22;64605;48.296;16.416;2022-10-31T01:03:32;15.10;82.10
75927;DHT22;64605;48.296;16.416;2022-10-31T01:08:23;15.10;81.70
75927;DHT22;64605;48.296;16.416;2022-10-31T01:11:02;15.10;81.60
75927;DHT22;64605;48.296;16.416;2022-10-31T01:13:28;15.10;81.50
75927;DHT22;64605;48.296;16.416;2022-10-31T01:15:55;15.10;81.40
75927;DHT22;64605;48.296;16.416;2022-10-31T01:18:21;15.10;81.30
75927;DHT22;64605;48.296;16.416;2022-10-31T01:20:46;15.00;81.10
75927;DHT22;64605;48.296;16.416;2022-10-31T01:23:12;14.90;81.50
75927;DHT22;64605;48.296;16.416;2022-10-31T01:25:38;14.90;81.90
75927;DHT22;64605;48.296;16.416;2022-10-31T01:28:03;14.90;81.90
75927;DHT22;64605;48.296;16.416;2022-10-31T01:30:29;14.90;81.70
75927;DHT22;64605;48.296;16.416;2022-10-31T01:32:55;14.90;81.70
75927;DHT22;64605;48.296;16.416;2022-10-31T01:35:20;14.90;81.60
75927;DHT22;64605;48.296;16.416;2022-10-31T01:37:46;14.90;81.60
75927;DHT22;64605;48.296;16.416;2022-10-31T01:40:11;14.90;81.70
75927;DHT22;64605;48.296;16.416;2022-10-31T01:42:37;14.90;81.60
75927;DHT22;64605;48.296;16.416;2022-10-31T01:45:03;14.90;81.90
75927;DHT22;64605;48.296;16.416;2022-10-31T01:47:45;15.00;82.00
75927;DHT22;64605;48.296;16.416;2022-10-31T01:50:33;15.10;81.80
75927;DHT22;64605;48.296;16.416;2022-10-31T01:53:01;15.10;81.60
75927;DHT22;64605;48.296;16.416;2022-10-31T01:55:33;15.10;81.40
75927;DHT22;64605;48.296;16.416;2022-10-31T01:58:06;15.20;81.40
75927;DHT22;64605;48.296;16.416;2022-10-31T02:00:32;15.20;81.20
75927;DHT22;64605;48.296;16.416;2022-10-31T02:02:58;15.20;82.10
75927;DHT22;64605;48.296;16.416;2022-10-31T02:05:27;15.20;81.10
75927;DHT22;64605;48.296;16.416;2022-10-31T02:10:22;15.30;81.10
75927;DHT22;64605;48.296;16.416;2022-10-31T02:12:51;15.20;80.90
75927;DHT22;64605;48.296;16.416;2022-10-31T02:15:18;15.30;80.90
75927;DHT22;64605;48.296;16.416;2022-10-31T02:17:44;15.30;80.70
75927;DHT22;64605;48.296;16.416;2022-10-31T02:20:24;15.30;80.70
75927;DHT22;64605;48.296;16.416;2022-10-31T02:36:46;15.30;80.50
75927;DHT22;64605;48.296;16.416;2022-10-31T02:39:25;15.40;80.60
75927;DHT22;64605;48.296;16.416;2022-10-31T02:42:07;15.30;80.20
75927;DHT22;64605;48.296;16.416;2022-10-31T02:45:00;15.30;80.40
75927;DHT22;64605;48.296;16.416;2022-10-31T02:47:29;15.30;80.60
75927;DHT22;64605;48.296;16.416;2022-10-31T02:50:13;15.30;80.30
75927;DHT22;64605;48.296;16.416;2022-10-31T02:52:39;15.30;80.30
75927;DHT22;64605;48.296;16.416;2022-10-31T02:57:51;15.30;80.30
75927;DHT22;64605;48.296;16.416;2022-10-31T03:00:17;15.30;80.30
75927;DHT22;64605;48.296;16.416;2022-10-31T03:10:59;15.20;80.10
75927;DHT22;64605;48.296;16.416;2022-10-31T03:18:39;15.30;80.20
75927;DHT22;64605;48.296;16.416;2022-10-31T03:21:19;15.30;80.20
75927;DHT22;64605;48.296;16.416;2022-10-31T03:23:48;15.20;80.30
75927;DHT22;64605;48.296;16.416;2022-10-31T03:26:16;15.20;80.40
75927;DHT22;64605;48.296;16.416;2022-10-31T03:28:54;15.20;80.40
75927;DHT22;64605;48.296;16.416;2022-10-31T03:31:23;15.30;80.40
75927;DHT22;64605;48.296;16.416;2022-10-31T03:33:51;15.30;80.40
75927;DHT22;64605;48.296;16.416;2022-10-31T03:36:18;15.20;80.30
75927;DHT22;64605;48.296;16.416;2022-10-31T03:38:45;15.30;81.50
75927;DHT22;64605;48.296;16.416;2022-10-31T03:41:16;15.30;81.20
75927;DHT22;64605;48.296;16.416;2022-10-31T03:43:59;15.30;80.20
75927;DHT22;64605;48.296;16.416;2022-10-31T03:46:27;15.30;80.30
75927;DHT22;64605;48.296;16.416;2022-10-31T03:48:53;15.30;80.30
75927;DHT22;64605;48.296;16.416;2022-10-31T03:57:22;15.30;80.20
75927;DHT22;64605;48.296;16.416;2022-10-31T03:59:46;15.30;80.20
75927;DHT22;64605;48.296;16.416;2022-10-31T04:02:18;15.30;80.20
75927;DHT22;64605;48.296;16.416;2022-10-31T04:04:45;15.30;80.20
75927;DHT22;64605;48.296;16.416;2022-10-31T04:07:12;15.30;79.90
75927;DHT22;64605;48.296;16.416;2022-10-31T04:09:44;15.30;80.00
75927;DHT22;64605;48.296;16.416;2022-10-31T04:12:13;15.30;80.00
75927;DHT22;64605;48.296;16.416;2022-10-31T04:14:42;15.30;80.00
75927;DHT22;64605;48.296;16.416;2022-10-31T04:17:12;15.20;79.90
75927;DHT22;64605;48.296;16.416;2022-10-31T04:19:39;15.20;79.90
75927;DHT22;64605;48.296;16.416;2022-10-31T04:22:05;15.20;79.80
75927;DHT22;64605;48.296;16.416;2022-10-31T04:24:30;15.30;79.80
75927;DHT22;64605;48.296;16.416;2022-10-31T04:26:56;15.20;79.80
75927;DHT22;64605;48.296;16.416;2022-10-31T04:29:21;15.20;79.90
75927;DHT22;64605;48.296;16.416;2022-10-31T04:31:47;15.20;79.80
75927;DHT22;64605;48.296;16.416;2022-10-31T04:34:13;15.20;79.70
75927;DHT22;64605;48.296;16.416;2022-10-31T04:36:38;15.20;79.70
75927;DHT22;64605;48.296;16.416;2022-10-31T04:39:04;15.20;79.80
75927;DHT22;64605;48.296;16.416;2022-10-31T04:41:29;15.20;79.50
75927;DHT22;64605;48.296;16.416;2022-10-31T04:43:55;15.20;79.30
75927;DHT22;64605;48.296;16.416;2022-10-31T04:46:21;15.20;79.50
75927;DHT22;64605;48.296;16.416;2022-10-31T04:48:46;15.10;79.30
75927;DHT22;64605;48.296;16.416;2022-10-31T04:51:12;15.20;79.50
75927;DHT22;64605;48.296;16.416;2022-10-31T04:53:38;15.20;79.40
75927;DHT22;64605;48.296;16.416;2022-10-31T04:56:03;15.10;79.30
75927;DHT22;64605;48.296;16.416;2022-10-31T04:58:29;15.10;79.30
75927;DHT22;64605;48.296;16.416;2022-10-31T05:00:55;15.00;79.40
75927;DHT22;64605;48.296;16.416;2022-10-31T05:03:22;15.00;79.50
75927;DHT22;64605;48.296;16.416;2022-10-31T05:05:47;15.10;79.50
75927;DHT22;64605;48.296;16.416;2022-10-31T05:08:14;15.10;79.60
75927;DHT22;64605;48.296;16.416;2022-10-31T05:10:39;15.10;79.40
75927;DHT22;64605;48.296;16.416;2022-10-31T05:13:06;15.00;79.20
75927;DHT22;64605;48.296;16.416;2022-10-31T05:15:31;15.00;79.20
75927;DHT22;64605;48.296;16.416;2022-10-31T05:17:57;15.00;79.20
75927;DHT22;64605;48.296;16.416;2022-10-31T05:20:25;15.00;79.40
75927;DHT22;64605;48.296;16.416;2022-10-31T05:22:53;15.00;79.40
75927;DHT22;64605;48.296;16.416;2022-10-31T05:25:20;14.90;79.10
75927;DHT22;64605;48.296;16.416;2022-10-31T05:27:48;14.90;79.40
75927;DHT22;64605;48.296;16.416;2022-10-31T05:30:16;14.90;79.30
75927;DHT22;64605;48.296;16.416;2022-10-31T05:32:43;14.90;79.60
75927;DHT22;64605;48.296;16.416;2022-10-31T05:35:11;14.90;79.20
75927;DHT22;64605;48.296;16.416;2022-10-31T05:37:38;14.80;79.20
75927;DHT22;64605;48.296;16.416;2022-10-31T05:40:05;14.80;79.40
75927;DHT22;64605;48.296;16.416;2022-10-31T05:42:32;14.80;79.50
75927;DHT22;64605;48.296;16.416;2022-10-31T05:44:58;14.80;79.50
75927;DHT22;64605;48.296;16.416;2022-10-31T05:47:24;14.80;79.40
75927;DHT22;64605;48.296;16.416;2022-10-31T05:49:50;14.80;79.50
75927;DHT22;64605;48.296;16.416;2022-10-31T05:52:15;14.90;79.60
75927;DHT22;64605;48.296;16.416;2022-10-31T05:54:41;14.80;79.40
75927;DHT22;64605;48.296;16.416;2022-10-31T05:57:07;14.90;79.60
75927;DHT22;64605;48.296;16.416;2022-10-31T05:59:32;14.80;79.50
75927;DHT22;64605;48.296;16.416;2022-10-31T06:01:58;14.90;79.40
75927;DHT22;64605;48.296;16.416;2022-10-31T06:04:24;14.90;79.20
75927;DHT22;64605;48.296;16.416;2022-10-31T06:06:49;14.90;79.30
75927;DHT22;64605;48.296;16.416;2022-10-31T06:09:15;14.90;79.20
75927;DHT22;64605;48.296;16.416;2022-10-31T06:11:40;14.90;79.30
75927;DHT22;64605;48.296;16.416;2022-10-31T06:14:06;14.90;79.30
75927;DHT22;64605;48.296;16.416;2022-10-31T06:16:32;14.90;79.20
75927;DHT22;64605;48.296;16.416;2022-10-31T06:18:57;15.00;79.20
75927;DHT22;64605;48.296;16.416;2022-10-31T06:21:23;15.00;79.10
75927;DHT22;64605;48.296;16.416;2022-10-31T06:23:49;15.00;79.20
75927;DHT22;64605;48.296;16.416;2022-10-31T06:26:15;15.00;78.90
75927;DHT22;64605;48.296;16.416;2022-10-31T06:28:41;15.10;79.00
75927;DHT22;64605;48.296;16.416;2022-10-31T06:31:06;15.00;78.90
75927;DHT22;64605;48.296;16.416;2022-10-31T06:33:33;15.10;79.00
75927;DHT22;64605;48.296;16.416;2022-10-31T06:35:59;15.10;78.80
75927;DHT22;64605;48.296;16.416;2022-10-31T06:38:28;15.20;78.90
75927;DHT22;64605;48.296;16.416;2022-10-31T06:40:54;15.20;78.80
75927;DHT22;64605;48.296;16.416;2022-10-31T06:43:23;15.20;78.90
75927;DHT22;64605;48.296;16.416;2022-10-31T06:45:48;15.20;78.30
75927;DHT22;64605;48.296;16.416;2022-10-31T06:48:14;15.20;78.20
75927;DHT22;64605;48.296;16.416;2022-10-31T06:50:39;15.20;78.40
75927;DHT22;64605;48.296;16.416;2022-10-31T06:53:05;15.30;78.60
75927;DHT22;64605;48.296;16.416;2022-10-31T06:55:31;15.40;78.30
75927;DHT22;64605;48.296;16.416;2022-10-31T06:58:00;15.40;77.70
75927;DHT22;64605;48.296;16.416;2022-10-31T07:00:28;15.40;78.30
75927;DHT22;64605;48.296;16.416;2022-10-31T07:03:05;15.40;78.20
75927;DHT22;64605;48.296;16.416;2022-10-31T07:05:31;15.50;77.90
75927;DHT22;64605;48.296;16.416;2022-10-31T07:08:03;15.60;77.70
75927;DHT22;64605;48.296;16.416;2022-10-31T07:10:31;15.60;77.60
75927;DHT22;64605;48.296;16.416;2022-10-31T07:12:58;15.60;77.40
75927;DHT22;64605;48.296;16.416;2022-10-31T07:15:25;15.70;77.20
75927;DHT22;64605;48.296;16.416;2022-10-31T07:17:51;15.60;77.00
75927;DHT22;64605;48.296;16.416;2022-10-31T07:20:18;15.70;77.10
75927;DHT22;64605;48.296;16.416;2022-10-31T07:22:44;15.80;77.40
75927;DHT22;64605;48.296;16.416;2022-10-31T07:25:10;15.80;77.00
75927;DHT22;64605;48.296;16.416;2022-10-31T07:27:40;15.80;76.80
75927;DHT22;64605;48.296;16.416;2022-10-31T07:30:07;15.90;76.80
75927;DHT22;64605;48.296;16.416;2022-10-31T07:35:05;15.90;76.30
75927;DHT22;64605;48.296;16.416;2022-10-31T07:37:31;16.00;76.40
75927;DHT22;64605;48.296;16.416;2022-10-31T07:39:57;15.90;77.00
75927;DHT22;64605;48.296;16.416;2022-10-31T07:42:22;16.00;76.00
75927;DHT22;64605;48.296;16.416;2022-10-31T07:44:48;16.00;76.30
75927;DHT22;64605;48.296;16.416;2022-10-31T07:47:13;15.90;76.20
75927;DHT22;64605;48.296;16.416;2022-10-31T07:49:39;15.90;76.00
75927;DHT22;64605;48.296;16.416;2022-10-31T07:52:05;15.90;76.30
75927;DHT22;64605;48.296;16.416;2022-10-31T07:54:30;15.90;76.30
75927;DHT22;64605;48.296;16.416;2022-10-31T07:56:56;15.90;76.00
75927;DHT22;64605;48.296;16.416;2022-10-31T07:59:21;15.90;75.90
75927;DHT22;64605;48.296;16.416;2022-10-31T08:01:47;16.00;76.60
75927;DHT22;64605;48.296;16.416;2022-10-31T08:04:13;16.00;76.30
75927;DHT22;64605;48.296;16.416;2022-10-31T08:06:38;16.10;76.80
75927;DHT22;64605;48.296;16.416;2022-10-31T08:09:04;16.10;75.90
75927;DHT22;64605;48.296;16.416;2022-10-31T08:11:29;16.20;76.10
75927;DHT22;64605;48.296;16.416;2022-10-31T08:13:55;16.30;76.00
75927;DHT22;64605;48.296;16.416;2022-10-31T08:16:21;16.30;75.70
75927;DHT22;64605;48.296;16.416;2022-10-31T08:18:46;16.30;74.90
75927;DHT22;64605;48.296;16.416;2022-10-31T08:21:13;16.30;74.80
75927;DHT22;64605;48.296;16.416;2022-10-31T08:23:38;16.40;75.20
75927;DHT22;64605;48.296;16.416;2022-10-31T08:26:04;16.40;74.80
75927;DHT22;64605;48.296;16.416;2022-10-31T08:28:31;16.40;74.70
75927;DHT22;64605;48.296;16.416;2022-10-31T08:30:58;16.30;74.20
75927;DHT22;64605;48.296;16.416;2022-10-31T08:33:24;16.30;74.80
75927;DHT22;64605;48.296;16.416;2022-10-31T08:35:50;16.30;74.60
75927;DHT22;64605;48.296;16.416;2022-10-31T08:38:16;16.20;74.20
75927;DHT22;64605;48.296;16.416;2022-10-31T08:40:42;16.10;74.80
75927;DHT22;64605;48.296;16.416;2022-10-31T08:43:15;16.10;75.10
75927;DHT22;64605;48.296;16.416;2022-10-31T08:45:41;16.10;75.60
75927;DHT22;64605;48.296;16.416;2022-10-31T08:48:10;16.20;75.50
75927;DHT22;64605;48.296;16.416;2022-10-31T08:50:36;16.30;75.40
75927;DHT22;64605;48.296;16.416;2022-10-31T08:53:11;16.40;75.60
75927;DHT22;64605;48.296;16.416;2022-10-31T08:55:38;16.50;75.10
75927;DHT22;64605;48.296;16.416;2022-10-31T08:58:05;16.50;75.20
75927;DHT22;64605;48.296;16.416;2022-10-31T09:00:33;16.60;75.00
75927;DHT22;64605;48.296;16.416;2022-10-31T09:03:01;16.60;74.80
75927;DHT22;64605;48.296;16.416;2022-10-31T09:05:27;16.50;74.20
75927;DHT22;64605;48.296;16.416;2022-10-31T09:07:57;16.60;75.00
75927;DHT22;64605;48.296;16.416;2022-10-31T09:10:24;16.60;74.10
75927;DHT22;64605;48.296;16.416;2022-10-31T09:13:00;16.50;73.90
75927;DHT22;64605;48.296;16.416;2022-10-31T09:15:27;16.50;74.00
75927;DHT22;64605;48.296;16.416;2022-10-31T09:17:53;16.50;74.80
75927;DHT22;64605;48.296;16.416;2022-10-31T09:20:20;16.60;74.90
75927;DHT22;64605;48.296;16.416;2022-10-31T09:22:46;16.70;74.50
75927;DHT22;64605;48.296;16.416;2022-10-31T09:25:11;16.70;74.50
75927;DHT22;64605;48.296;16.416;2022-10-31T09:27:37;16.70;74.20
75927;DHT22;64605;48.296;16.416;2022-10-31T09:30:04;16.80;74.20
75927;DHT22;64605;48.296;16.416;2022-10-31T09:32:29;16.70;74.00
75927;DHT22;64605;48.296;16.416;2022-10-31T09:34:55;16.70;74.30
75927;DHT22;64605;48.296;16.416;2022-10-31T09:37:20;16.70;73.80
75927;DHT22;64605;48.296;16.416;2022-10-31T09:39:46;16.70;73.20
75927;DHT22;64605;48.296;16.416;2022-10-31T09:42:40;16.60;73.80
75927;DHT22;64605;48.296;16.416;2022-10-31T09:50:54;16.70;73.90
75927;DHT22;64605;48.296;16.416;2022-10-31T09:56:14;16.60;74.80
75927;DHT22;64605;48.296;16.416;2022-10-31T09:58:43;16.70;73.60
75927;DHT22;64605;48.296;16.416;2022-10-31T10:01:29;16.70;74.00
75927;DHT22;64605;48.296;16.416;2022-10-31T10:04:01;16.70;72.70
75927;DHT22;64605;48.296;16.416;2022-10-31T10:06:29;16.50;73.20
75927;DHT22;64605;48.296;16.416;2022-10-31T10:08:57;16.30;73.70
75927;DHT22;64605;48.296;16.416;2022-10-31T10:11:46;16.40;74.60
75927;DHT22;64605;48.296;16.416;2022-10-31T10:14:37;16.40;74.30
75927;DHT22;64605;48.296;16.416;2022-10-31T10:25:16;16.40;73.80
75927;DHT22;64605;48.296;16.416;2022-10-31T10:32:56;16.20;74.40
75927;DHT22;64605;48.296;16.416;2022-10-31T10:35:40;16.20;74.60
75927;DHT22;64605;48.296;16.416;2022-10-31T10:38:15;16.30;75.10
75927;DHT22;64605;48.296;16.416;2022-10-31T10:40:41;16.30;75.50
75927;DHT22;64605;48.296;16.416;2022-10-31T10:43:32;16.20;74.40
75927;DHT22;64605;48.296;16.416;2022-10-31T10:51:55;16.20;74.80
75927;DHT22;64605;48.296;16.416;2022-10-31T10:54:46;16.30;75.10
75927;DHT22;64605;48.296;16.416;2022-10-31T11:00:17;16.30;74.80
75927;DHT22;64605;48.296;16.416;2022-10-31T11:02:43;16.30;74.80
75927;DHT22;64605;48.296;16.416;2022-10-31T11:05:36;16.10;74.40
75927;DHT22;64605;48.296;16.416;2022-10-31T11:08:00;16.00;74.90
75927;DHT22;64605;48.296;16.416;2022-10-31T11:10:25;16.10;75.10
75927;DHT22;64605;48.296;16.416;2022-10-31T11:15:49;15.90;75.40
75927;DHT22;64605;48.296;16.416;2022-10-31T11:18:21;16.00;75.50
75927;DHT22;64605;48.296;16.416;2022-10-31T11:20:54;16.10;75.80
75927;DHT22;64605;48.296;16.416;2022-10-31T11:23:22;16.20;75.30
75927;DHT22;64605;48.296;16.416;2022-10-31T11:25:53;16.20;75.00
75927;DHT22;64605;48.296;16.416;2022-10-31T11:28:19;16.20;75.00
75927;DHT22;64605;48.296;16.416;2022-10-31T11:30:48;16.30;75.20
75927;DHT22;64605;48.296;16.416;2022-10-31T11:35:43;16.40;75.20
75927;DHT22;64605;48.296;16.416;2022-10-31T11:38:17;16.40;74.70
75927;DHT22;64605;48.296;16.416;2022-10-31T11:41:16;16.30;74.50
75927;DHT22;64605;48.296;16.416;2022-10-31T11:43:54;16.20;75.50
75927;DHT22;64605;48.296;16.416;2022-10-31T11:46:41;16.30;75.40
75927;DHT22;64605;48.296;16.416;2022-10-31T11:51:42;16.40;75.20
75927;DHT22;64605;48.296;16.416;2022-10-31T11:54:28;16.40;74.90
75927;DHT22;64605;48.296;16.416;2022-10-31T11:56:55;16.30;74.60
75927;DHT22;64605;48.296;16.416;2022-10-31T11:59:29;16.20;75.00
75927;DHT22;64605;48.296;16.416;2022-10-31T12:01:58;16.00;75.20
75927;DHT22;64605;48.296;16.416;2022-10-31T12:04:44;16.00;75.40
75927;DHT22;64605;48.296;16.416;2022-10-31T12:07:10;15.70;76.40
75927;DHT22;64605;48.296;16.416;2022-10-31T12:09:37;15.60;77.00
75927;DHT22;64605;48.296;16.416;2022-10-31T12:23:30;15.50;77.70
75927;DHT22;64605;48.296;16.416;2022-10-31T12:26:15;15.60;78.00
75927;DHT22;64605;48.296;16.416;2022-10-31T12:45:43;15.50;77.90
75927;DHT22;64605;48.296;16.416;2022-10-31T12:51:00;15.40;78.30
75927;DHT22;64605;48.296;16.416;2022-10-31T12:56:24;15.40;78.70
75927;DHT22;64605;48.296;16.416;2022-10-31T13:02:06;15.20;79.30
75927;DHT22;64605;48.296;16.416;2022-10-31T13:04:53;15.10;79.30
75927;DHT22;64605;48.296;16.416;2022-10-31T13:07:44;15.00;79.80
75927;DHT22;64605;48.296;16.416;2022-10-31T13:10:32;15.00;80.10
75927;DHT22;64605;48.296;16.416;2022-10-31T13:13:11;15.10;79.80
75927;DHT22;64605;48.296;16.416;2022-10-31T13:16:12;15.30;79.70
75927;DHT22;64605;48.296;16.416;2022-10-31T13:18:55;15.40;78.80
75927;DHT22;64605;48.296;16.416;2022-10-31T13:21:30;15.40;78.70
75927;DHT22;64605;48.296;16.416;2022-10-31T13:24:02;15.20;79.10
75927;DHT22;64605;48.296;16.416;2022-10-31T13:26:44;15.20;79.50
75927;DHT22;64605;48.296;16.416;2022-10-31T13:29:15;15.20;79.30
75927;DHT22;64605;48.296;16.416;2022-10-31T13:31:43;15.20;79.30
75927;DHT22;64605;48.296;16.416;2022-10-31T13:34:36;15.10;79.50
75927;DHT22;64605;48.296;16.416;2022-10-31T13:39:49;15.30;79.10
75927;DHT22;64605;48.296;16.416;2022-10-31T13:42:22;15.30;79.20
75927;DHT22;64605;48.296;16.416;2022-10-31T13:44:49;15.30;79.40
75927;DHT22;64605;48.296;16.416;2022-10-31T13:47:25;15.20;79.60
75927;DHT22;64605;48.296;16.416;2022-10-31T13:49:51;15.20;79.70
75927;DHT22;64605;48.296;16.416;2022-10-31T13:52:29;15.10;80.20
75927;DHT22;64605;48.296;16.416;2022-10-31T13:54:55;15.00;80.30
75927;DHT22;64605;48.296;16.416;2022-10-31T13:57:43;15.10;80.30
75927;DHT22;64605;48.296;16.416;2022-10-31T14:00:24;15.10;80.20
75927;DHT22;64605;48.296;16.416;2022-10-31T14:02:52;15.10;80.10
75927;DHT22;64605;48.296;16.416;2022-10-31T14:05:26;15.10;80.30
75927;DHT22;64605;48.296;16.416;2022-10-31T14:07:53;15.00;80.90
75927;DHT22;64605;48.296;16.416;2022-10-31T14:12:53;15.00;80.50
75927;DHT22;64605;48.296;16.416;2022-10-31T14:15:23;14.90;80.70
75927;DHT22;64605;48.296;16.416;2022-10-31T14:17:58;14.80;81.00
75927;DHT22;64605;48.296;16.416;2022-10-31T14:20:40;14.90;82.20
75927;DHT22;64605;48.296;16.416;2022-10-31T14:26:21;14.80;82.20
75927;DHT22;64605;48.296;16.416;2022-10-31T14:28:48;14.80;82.00
75927;DHT22;64605;48.296;16.416;2022-10-31T14:31:35;14.80;82.10
75927;DHT22;64605;48.296;16.416;2022-10-31T14:34:30;14.70;82.20
75927;DHT22;64605;48.296;16.416;2022-10-31T14:52:53;14.70;82.80
75927;DHT22;64605;48.296;16.416;2022-10-31T14:55:20;14.60;82.60
75927;DHT22;64605;48.296;16.416;2022-10-31T14:57:54;14.70;82.70
75927;DHT22;64605;48.296;16.416;2022-10-31T15:00:22;14.60;82.80
75927;DHT22;64605;48.296;16.416;2022-10-31T15:05:32;14.60;84.00
75927;DHT22;64605;48.296;16.416;2022-10-31T15:08:00;14.50;83.20
75927;DHT22;64605;48.296;16.416;2022-10-31T15:10:31;14.60;83.30
75927;DHT22;64605;48.296;16.416;2022-10-31T15:13:18;14.50;83.30
75927;DHT22;64605;48.296;16.416;2022-10-31T15:15:44;14.50;83.70
75927;DHT22;64605;48.296;16.416;2022-10-31T15:18:16;14.50;83.60
75927;DHT22;64605;48.296;16.416;2022-10-31T15:20:44;14.50;83.40
75927;DHT22;64605;48.296;16.416;2022-10-31T15:23:17;14.50;83.60
75927;DHT22;64605;48.296;16.416;2022-10-31T15:25:47;14.40;83.70
75927;DHT22;64605;48.296;16.416;2022-10-31T15:28:23;14.40;84.20
75927;DHT22;64605;48.296;16.416;2022-10-31T15:30:54;14.20;84.80
75927;DHT22;64605;48.296;16.416;2022-10-31T15:33:22;14.10;84.80
75927;DHT22;64605;48.296;16.416;2022-10-31T15:35:59;14.20;84.70
75927;DHT22;64605;48.296;16.416;2022-10-31T15:38:26;14.20;84.70
75927;DHT22;64605;48.296;16.416;2022-10-31T15:41:03;14.20;84.90
75927;DHT22;64605;48.296;16.416;2022-10-31T15:43:35;14.20;84.80
75927;DHT22;64605;48.296;16.416;2022-10-31T15:46:03;14.20;84.80
75927;DHT22;64605;48.296;16.416;2022-10-31T15:48:29;14.30;84.50
75927;DHT22;64605;48.296;16.416;2022-10-31T15:51:00;14.30;84.40
75927;DHT22;64605;48.296;16.416;2022-10-31T15:53:35;14.20;84.30
75927;DHT22;64605;48.296;16.416;2022-10-31T15:56:06;14.30;84.30
75927;DHT22;64605;48.296;16.416;2022-10-31T15:58:52;14.20;84.30
75927;DHT22;64605;48.296;16.416;2022-10-31T16:04:21;14.30;83.90
75927;DHT22;64605;48.296;16.416;2022-10-31T16:07:14;14.30;83.80
75927;DHT22;64605;48.296;16.416;2022-10-31T16:09:58;14.20;84.10
75927;DHT22;64605;48.296;16.416;2022-10-31T16:12:27;14.20;84.40
75927;DHT22;64605;48.296;16.416;2022-10-31T16:14:54;14.30;84.40
75927;DHT22;64605;48.296;16.416;2022-10-31T16:17:23;14.10;84.70
75927;DHT22;64605;48.296;16.416;2022-10-31T16:19:57;14.20;84.80
75927;DHT22;64605;48.296;16.416;2022-10-31T16:22:28;14.20;84.80
75927;DHT22;64605;48.296;16.416;2022-10-31T16:27:24;14.20;84.90
75927;DHT22;64605;48.296;16.416;2022-10-31T16:29:55;14.20;84.80
75927;DHT22;64605;48.296;16.416;2022-10-31T16:32:27;14.20;84.70
75927;DHT22;64605;48.296;16.416;2022-10-31T16:37:27;14.10;85.00
75927;DHT22;64605;48.296;16.416;2022-10-31T16:39:52;14.10;85.30
75927;DHT22;64605;48.296;16.416;2022-10-31T16:42:18;13.90;86.10
75927;DHT22;64605;48.296;16.416;2022-10-31T16:44:44;14.00;86.10
75927;DHT22;64605;48.296;16.416;2022-10-31T16:47:14;13.90;86.10
75927;DHT22;64605;48.296;16.416;2022-10-31T16:49:43;13.90;86.30
75927;DHT22;64605;48.296;16.416;2022-10-31T16:52:11;13.80;86.70
75927;DHT22;64605;48.296;16.416;2022-10-31T16:54:37;13.80;86.70
75927;DHT22;64605;48.296;16.416;2022-10-31T16:57:03;13.90;86.50
75927;DHT22;64605;48.296;16.416;2022-10-31T16:59:31;13.90;86.30
75927;DHT22;64605;48.296;16.416;2022-10-31T17:01:59;14.00;86.10
75927;DHT22;64605;48.296;16.416;2022-10-31T17:04:25;14.00;87.20
75927;DHT22;64605;48.296;16.416;2022-10-31T17:06:50;13.90;86.30
75927;DHT22;64605;48.296;16.416;2022-10-31T17:09:16;14.00;86.10
75927;DHT22;64605;48.296;16.416;2022-10-31T17:11:49;14.00;86.00
75927;DHT22;64605;48.296;16.416;2022-10-31T17:14:16;13.80;86.20
75927;DHT22;64605;48.296;16.416;2022-10-31T17:16:42;13.80;86.60
75927;DHT22;64605;48.296;16.416;2022-10-31T17:19:10;13.70;86.70
75927;DHT22;64605;48.296;16.416;2022-10-31T17:21:36;13.70;86.80
75927;DHT22;64605;48.296;16.416;2022-10-31T17:24:02;13.70;86.70
75927;DHT22;64605;48.296;16.416;2022-10-31T17:26:28;13.70;86.60
75927;DHT22;64605;48.296;16.416;2022-10-31T17:28:53;13.60;87.00
75927;DHT22;64605;48.296;16.416;2022-10-31T17:31:30;13.60;87.60
75927;DHT22;64605;48.296;16.416;2022-10-31T17:33:57;13.60;87.70
75927;DHT22;64605;48.296;16.416;2022-10-31T17:36:24;13.60;87.80
75927;DHT22;64605;48.296;16.416;2022-10-31T17:38:49;13.60;87.60
75927;DHT22;64605;48.296;16.416;2022-10-31T17:41:15;13.60;87.40
75927;DHT22;64605;48.296;16.416;2022-10-31T17:43:41;13.50;87.40
75927;DHT22;64605;48.296;16.416;2022-10-31T17:46:07;13.60;87.30
75927;DHT22;64605;48.296;16.416;2022-10-31T17:48:34;13.60;86.90
75927;DHT22;64605;48.296;16.416;2022-10-31T17:51:01;13.50;86.60
75927;DHT22;64605;48.296;16.416;2022-10-31T17:53:28;13.50;86.60
75927;DHT22;64605;48.296;16.416;2022-10-31T17:56:02;13.50;86.50
75927;DHT22;64605;48.296;16.416;2022-10-31T17:58:29;13.50;86.90
75927;DHT22;64605;48.296;16.416;2022-10-31T18:00:55;13.70;86.30
75927;DHT22;64605;48.296;16.416;2022-10-31T18:03:20;13.70;85.90